Time;durP1;ratioP1;P1;durP2;ratioP2;P2;SDS_P1;SDS_P2;PMS_P1;PMS_P2;Temp;Humidity;BMP_temperature;BMP_pressure;BME280_temperature;BME280_humidity;BME280_pressure;Samples;Min_cycle;Max_cycle;Signal;HPM_P1;HPM_P2
2022/05/10 00:00:03;;;;;;;9.30;5.10;;;;;;;5.93;49.46;101294.29;130221;1268;107691;-74
2022/05/10 00:03:40;;;;;;;10.10;4.80;;;;;;;5.88;49.61;101292.81;130233;1269;110233;-75
2022/05/10 00:06:49;;;;;;;8.80;4.90;;;;;;;5.85;49.67;101287.87;130213;1268;108734;-74
2022/05/10 00:09:55;;;;;;;9.30;4.90;;;;;;;5.83;49.73;101287.29;130282;1268;108729;-74
2022/05/10 00:13:00;;;;;;;8.30;4.20;;;;;;;5.81;49.82;101288.64;130234;1268;108681;-74
2022/05/10 00:16:06;;;;;;;10.20;4.50;;;;;;;5.77;49.91;101290.89;130258;1268;109491;-75
2022/05/10 00:19:16;;;;;;;9.40;4.70;;;;;;;5.72;49.99;101285.20;130247;1268;108453;-76
2022/05/10 00:22:21;;;;;;;9.30;4.20;;;;;;;5.67;50.04;101280.53;130289;1268;107891;-73
2022/05/10 00:25:30;;;;;;;10.00;4.50;;;;;;;5.62;50.04;101280.67;130213;1268;108812;-76
2022/05/10 00:28:35;;;;;;;8.20;4.60;;;;;;;5.56;50.26;101277.36;130228;1267;108834;-77
2022/05/10 00:31:41;;;;;;;7.60;4.20;;;;;;;5.50;50.15;101270.85;130208;1268;108793;-75
2022/05/10 00:34:47;;;;;;;9.00;4.70;;;;;;;5.46;50.26;101271.27;130242;1268;108668;-76
2022/05/10 00:37:55;;;;;;;14.00;4.40;;;;;;;5.41;50.37;101269.98;130180;1268;109198;-73
2022/05/10 00:41:07;;;;;;;8.50;4.70;;;;;;;5.36;50.39;101267.96;130237;1268;108568;-74
2022/05/10 00:44:20;;;;;;;8.30;4.30;;;;;;;5.27;50.45;101263.23;130255;1268;107750;-75
2022/05/10 00:47:32;;;;;;;8.70;4.70;;;;;;;5.23;50.61;101259.09;130261;1268;107790;-76
2022/05/10 00:50:42;;;;;;;7.70;4.50;;;;;;;5.20;50.56;101262.76;130269;1268;108646;-74
2022/05/10 00:53:59;;;;;;;8.70;4.50;;;;;;;5.18;50.68;101261.36;130201;1268;108794;-73
2022/05/10 00:57:13;;;;;;;8.60;4.50;;;;;;;5.15;50.76;101264.17;130260;1268;108841;-73
2022/05/10 01:00:22;;;;;;;8.60;4.40;;;;;;;5.13;50.77;101260.41;130251;1268;108815;-74
2022/05/10 01:03:31;;;;;;;7.30;4.30;;;;;;;5.10;50.85;101259.48;130151;1268;108742;-74
2022/05/10 01:06:46;;;;;;;7.30;4.30;;;;;;;5.08;50.89;101255.92;130198;1267;108679;-74
2022/05/10 01:09:56;;;;;;;9.40;4.80;;;;;;;5.04;51.04;101252.64;130231;1269;108074;-74
2022/05/10 01:13:11;;;;;;;11.00;5.00;;;;;;;4.97;51.31;101246.86;130219;1268;108688;-74
2022/05/10 01:16:19;;;;;;;7.70;4.50;;;;;;;4.91;51.13;101243.58;130232;1269;108751;-73
2022/05/10 01:19:25;;;;;;;7.80;4.20;;;;;;;4.87;51.22;101243.61;130215;1268;107743;-73
2022/05/10 01:22:59;;;;;;;9.10;4.50;;;;;;;4.86;51.46;101237.02;130185;1268;108809;-74
2022/05/10 01:26:10;;;;;;;7.60;4.10;;;;;;;4.77;51.29;101228.73;130034;1269;109219;-75
2022/05/10 01:29:21;;;;;;;6.80;4.20;;;;;;;4.70;51.44;101227.69;130224;1268;107674;-75
2022/05/10 01:36:08;;;;;;;7.50;4.10;;;;;;;4.65;51.51;101223.08;130237;1268;108856;-74
2022/05/10 01:39:21;;;;;;;7.20;4.20;;;;;;;4.62;51.58;101226.07;130251;1268;108766;-76
2022/05/10 01:42:33;;;;;;;7.40;4.40;;;;;;;4.57;51.67;101223.72;130259;1269;108733;-74
2022/05/10 01:45:42;;;;;;;7.20;4.40;;;;;;;4.53;51.70;101216.88;130211;1270;108734;-73
2022/05/10 01:48:52;;;;;;;7.90;4.50;;;;;;;4.50;51.69;101213.02;130202;1269;108652;-74
2022/05/10 01:52:02;;;;;;;6.70;4.30;;;;;;;4.47;51.80;101214.45;130262;1268;108718;-73
2022/05/10 01:55:22;;;;;;;8.60;4.70;;;;;;;4.44;51.95;101212.50;130202;1270;108731;-72
2022/05/10 01:58:30;;;;;;;8.70;4.80;;;;;;;4.43;52.18;101213.13;130212;1269;108864;-73
2022/05/10 02:01:40;;;;;;;7.10;4.10;;;;;;;4.43;51.96;101212.05;130259;1268;109096;-73
2022/05/10 02:04:49;;;;;;;8.50;4.50;;;;;;;4.42;52.09;101211.42;130226;1269;108714;-74
2022/05/10 02:08:00;;;;;;;8.10;4.60;;;;;;;4.39;52.19;101211.91;130245;1268;108688;-74
2022/05/10 02:11:12;;;;;;;8.70;4.70;;;;;;;4.34;52.22;101206.19;130249;1269;108684;-75
2022/05/10 02:14:24;;;;;;;8.70;4.60;;;;;;;4.29;52.31;101206.70;130262;1268;108843;-75
2022/05/10 02:17:31;;;;;;;;;;;;;;;4.25;52.43;101206.38;130321;1267;108823;-76
2022/05/10 02:20:43;;;;;;;7.60;4.20;;;;;;;4.22;52.48;101208.15;130287;1268;108862;-74
2022/05/10 02:23:55;;;;;;;8.60;4.70;;;;;;;4.18;52.49;101203.48;130227;1268;108734;-75
2022/05/10 02:27:04;;;;;;;7.30;4.20;;;;;;;4.14;52.38;101201.21;130267;1268;109268;-75
2022/05/10 02:30:13;;;;;;;7.80;4.20;;;;;;;4.10;52.43;101201.77;130188;1268;108654;-75
2022/05/10 02:33:19;;;;;;;7.30;4.30;;;;;;;4.07;52.51;101201.05;130315;1268;108805;-77
2022/05/10 02:36:24;;;;;;;7.40;4.60;;;;;;;4.03;52.56;101197.06;130258;1269;109597;-75
2022/05/10 02:39:31;;;;;;;8.10;4.60;;;;;;;4.02;52.63;101191.85;130234;1270;109006;-75
2022/05/10 02:42:37;;;;;;;7.10;4.60;;;;;;;4.01;52.58;101194.70;130266;1268;108864;-75
2022/05/10 02:45:44;;;;;;;8.00;4.20;;;;;;;3.99;52.71;101193.64;130311;1270;109014;-74
2022/05/10 02:48:51;;;;;;;6.70;4.20;;;;;;;3.95;52.79;101186.11;130231;1270;108698;-73
2022/05/10 02:51:56;;;;;;;8.10;4.80;;;;;;;3.95;52.84;101186.31;130282;1268;108643;-72
2022/05/10 02:55:08;;;;;;;8.80;4.70;;;;;;;3.93;52.89;101189.74;130210;1268;108613;-72
2022/05/10 02:58:23;;;;;;;8.50;4.90;;;;;;;3.91;52.94;101183.16;130241;1268;108693;-75
2022/05/10 03:01:35;;;;;;;9.40;4.40;;;;;;;3.88;53.10;101179.98;130281;1268;109045;-73
2022/05/10 03:04:43;;;;;;;7.80;5.20;;;;;;;3.86;53.28;101179.38;130369;1269;108636;-71
2022/05/10 03:07:50;;;;;;;8.30;4.20;;;;;;;3.83;53.19;101177.59;130235;1268;107733;-76
2022/05/10 03:10:56;;;;;;;8.40;4.80;;;;;;;3.84;53.26;101173.85;130382;1269;107708;-74
2022/05/10 03:14:02;;;;;;;7.40;4.40;;;;;;;3.87;53.25;101166.15;130246;1269;108844;-73
2022/05/10 03:17:10;;;;;;;7.60;4.10;;;;;;;3.88;53.39;101166.39;130225;1268;108683;-75
2022/05/10 03:20:16;;;;;;;9.90;4.60;;;;;;;3.88;53.35;101162.73;130231;1268;108542;-74
2022/05/10 03:23:21;;;;;;;7.00;4.70;;;;;;;3.87;53.37;101163.33;130170;1268;108655;-76
2022/05/10 03:26:28;;;;;;;9.50;4.50;;;;;;;3.90;53.42;101160.84;130239;1268;108972;-74
2022/05/10 03:29:34;;;;;;;8.30;4.40;;;;;;;3.95;53.56;101157.58;130265;1268;108961;-74
2022/05/10 03:32:39;;;;;;;8.00;4.80;;;;;;;3.99;53.52;101157.20;130269;1268;108656;-75
2022/05/10 03:35:45;;;;;;;7.60;4.60;;;;;;;4.03;53.74;101158.37;130286;1268;108834;-73
2022/05/10 03:38:50;;;;;;;9.60;4.80;;;;;;;4.08;53.77;101159.31;130276;1268;108837;-73
2022/05/10 03:41:56;;;;;;;9.40;4.80;;;;;;;4.16;53.92;101158.14;130262;1268;107192;-72
2022/05/10 03:45:01;;;;;;;7.60;4.90;;;;;;;4.31;53.77;101158.45;130237;1268;108715;-74
2022/05/10 03:48:08;;;;;;;9.60;5.30;;;;;;;4.55;53.93;101155.64;130081;1268;215100;-74
2022/05/10 03:51:14;;;;;;;8.10;5.00;;;;;;;4.78;53.73;101155.85;129962;1268;108826;-74
2022/05/10 03:54:19;;;;;;;7.90;4.90;;;;;;;5.02;53.81;101154.19;130247;1270;108905;-74
2022/05/10 03:57:25;;;;;;;6.70;4.50;;;;;;;5.22;53.82;101150.11;130157;1268;109854;-72
2022/05/10 04:00:31;;;;;;;7.20;4.60;;;;;;;5.50;53.85;101145.55;130250;1268;109040;-74
2022/05/10 04:03:36;;;;;;;7.90;4.70;;;;;;;5.79;53.88;101146.27;130299;1270;107078;-74
2022/05/10 04:06:42;;;;;;;6.70;4.60;;;;;;;6.07;53.67;101140.80;130313;1268;108643;-75
2022/05/10 04:09:47;;;;;;;8.90;5.20;;;;;;;6.37;53.77;101142.82;130338;1269;108493;-74
2022/05/10 04:12:53;;;;;;;11.60;5.10;;;;;;;6.65;53.75;101135.80;130290;1268;109182;-73
2022/05/10 04:15:59;;;;;;;9.00;6.00;;;;;;;6.92;53.67;101135.54;130252;1270;108792;-73
2022/05/10 04:19:05;;;;;;;9.90;5.80;;;;;;;7.20;53.65;101137.23;130261;1268;108863;-73
2022/05/10 04:22:10;;;;;;;9.60;5.80;;;;;;;7.46;53.85;101137.34;130248;1268;108602;-73
2022/05/10 04:25:21;;;;;;;8.40;5.30;;;;;;;7.74;53.69;101133.36;130244;1268;108750;-73
2022/05/10 04:28:27;;;;;;;8.20;5.10;;;;;;;8.00;53.51;101135.14;130213;1268;108648;-72
2022/05/10 04:31:32;;;;;;;9.20;5.60;;;;;;;8.28;53.80;101136.98;130206;1268;108736;-74
2022/05/10 04:34:38;;;;;;;8.90;5.60;;;;;;;8.56;53.43;101137.89;130296;1270;108945;-73
2022/05/10 04:37:43;;;;;;;9.20;5.70;;;;;;;8.79;53.50;101135.23;130273;1270;108743;-73
2022/05/10 04:44:27;;;;;;;10.30;5.20;;;;;;;9.27;53.81;101130.18;129877;1272;108974;-73
2022/05/10 04:47:33;;;;;;;8.50;5.40;;;;;;;9.52;53.48;101125.51;130210;1268;108704;-71
2022/05/10 04:50:38;;;;;;;8.20;4.90;;;;;;;9.77;53.23;101125.80;130228;1270;108897;-72
2022/05/10 04:53:44;;;;;;;7.50;4.60;;;;;;;10.02;53.02;101123.66;130228;1268;108705;-72
2022/05/10 04:56:49;;;;;;;7.00;4.40;;;;;;;10.24;52.54;101125.77;130234;1268;108898;-71
2022/05/10 04:59:55;;;;;;;6.80;4.10;;;;;;;10.46;52.43;101123.93;130202;1268;107822;-73
2022/05/10 05:03:00;;;;;;;8.10;4.40;;;;;;;10.69;52.33;101121.95;130242;1268;108816;-74
2022/05/10 05:06:06;;;;;;;5.60;4.00;;;;;;;10.92;51.98;101123.18;130239;1268;107433;-73
2022/05/10 05:09:13;;;;;;;7.50;4.10;;;;;;;11.15;51.78;101119.41;130178;1268;108858;-73
2022/05/10 05:12:18;;;;;;;6.90;4.10;;;;;;;11.35;51.72;101119.05;130239;1268;108841;-74
2022/05/10 05:15:24;;;;;;;7.40;4.30;;;;;;;11.55;51.53;101120.63;130132;1269;108581;-73
2022/05/10 05:18:30;;;;;;;6.10;3.90;;;;;;;11.74;51.49;101125.64;130207;1270;108719;-71
2022/05/10 05:21:35;;;;;;;5.60;3.80;;;;;;;11.93;51.02;101126.49;130194;1270;108763;-73
2022/05/10 05:24:41;;;;;;;8.00;3.90;;;;;;;12.10;51.26;101127.07;130327;1267;108691;-72
2022/05/10 05:27:46;;;;;;;5.70;3.90;;;;;;;12.26;50.83;101126.48;130392;1267;108688;-73
2022/05/10 05:30:53;;;;;;;7.10;4.40;;;;;;;12.41;50.47;101129.40;130395;1267;108709;-73
2022/05/10 05:33:58;;;;;;;5.80;3.90;;;;;;;12.53;50.56;101130.92;130495;1267;108787;-73
2022/05/10 05:40:28;;;;;;;5.10;3.70;;;;;;;12.76;50.21;101127.52;130425;1267;108687;-72
2022/05/10 05:43:34;;;;;;;5.40;3.60;;;;;;;12.84;50.38;101127.27;130401;1267;109825;-77
2022/05/10 05:46:40;;;;;;;7.50;3.90;;;;;;;12.92;50.19;101127.96;130430;1267;108893;-72
2022/05/10 05:49:46;;;;;;;7.90;3.90;;;;;;;13.00;49.93;101125.58;130365;1267;108668;-71
2022/05/10 05:52:53;;;;;;;7.20;4.20;;;;;;;13.07;49.82;101126.95;130369;1267;109301;-71
2022/05/10 05:56:05;;;;;;;8.20;4.60;;;;;;;13.14;49.72;101126.70;130442;1267;108790;-72
2022/05/10 05:59:11;;;;;;;8.40;4.60;;;;;;;13.21;49.60;101128.42;130533;1267;108858;-73
2022/05/10 06:02:20;;;;;;;7.90;5.00;;;;;;;13.28;49.72;101132.20;130393;1267;108885;-71
2022/05/10 06:05:28;;;;;;;7.60;5.40;;;;;;;13.33;49.51;101127.40;130423;1266;108686;-72
2022/05/10 06:08:33;;;;;;;8.10;5.00;;;;;;;13.38;49.55;101126.84;130371;1267;108791;-72
2022/05/10 06:11:39;;;;;;;9.90;5.20;;;;;;;13.40;49.29;101124.46;130365;1267;109142;-72
2022/05/10 06:14:45;;;;;;;8.30;5.50;;;;;;;13.45;49.22;101122.06;130308;1267;108856;-73
2022/05/10 06:17:51;;;;;;;7.50;5.10;;;;;;;13.47;49.11;101119.08;130360;1267;108689;-73
2022/05/10 06:20:57;;;;;;;8.40;5.10;;;;;;;13.50;48.80;101115.08;130309;1266;108805;-74
2022/05/10 06:24:02;;;;;;;9.30;5.60;;;;;;;13.52;48.73;101109.65;130441;1267;108952;-74
2022/05/10 06:27:16;;;;;;;8.00;4.90;;;;;;;13.56;48.48;101107.65;130474;1267;107693;-75
2022/05/10 06:30:23;;;;;;;7.50;4.70;;;;;;;13.61;48.15;101103.08;130393;1267;108872;-72
2022/05/10 06:33:29;;;;;;;9.30;4.90;;;;;;;13.67;48.35;101101.05;130368;1267;108652;-75
2022/05/10 06:36:34;;;;;;;6.50;4.40;;;;;;;13.73;48.10;101098.85;130503;1267;108794;-73
2022/05/10 06:39:40;;;;;;;7.10;4.10;;;;;;;13.79;47.71;101097.23;130399;1267;108554;-73
2022/05/10 06:42:46;;;;;;;5.90;3.90;;;;;;;13.85;47.71;101097.50;130364;1267;108948;-73
2022/05/10 06:45:53;;;;;;;5.00;3.30;;;;;;;13.92;47.55;101098.77;130426;1267;108718;-73
2022/05/10 06:48:59;;;;;;;5.00;3.10;;;;;;;13.99;47.39;101096.05;130434;1267;109030;-72
2022/05/10 06:52:05;;;;;;;4.80;3.40;;;;;;;14.06;47.32;101095.56;130498;1267;107687;-73
2022/05/10 06:55:12;;;;;;;4.70;3.40;;;;;;;14.13;47.10;101091.39;130447;1266;108975;-72
2022/05/10 06:58:17;;;;;;;4.50;3.20;;;;;;;14.20;47.29;101088.39;130454;1267;108680;-72
2022/05/10 07:01:23;;;;;;;4.70;3.50;;;;;;;14.29;47.18;101091.08;130435;1268;109492;-72
2022/05/10 07:04:28;;;;;;;7.40;3.50;;;;;;;14.37;46.87;101091.64;130369;1267;108683;-72
2022/05/10 07:07:34;;;;;;;6.90;3.50;;;;;;;14.46;47.05;101090.23;130384;1268;108744;-72
2022/05/10 07:10:39;;;;;;;10.00;3.20;;;;;;;14.57;47.07;101088.41;130447;1268;108916;-72
2022/05/10 07:13:45;;;;;;;5.40;2.90;;;;;;;14.65;47.02;101085.56;130480;1268;108644;-72
2022/05/10 07:16:50;;;;;;;4.60;2.60;;;;;;;14.73;46.78;101082.65;130352;1268;108825;-73
2022/05/10 07:20:05;;;;;;;11.40;3.10;;;;;;;14.83;46.84;101081.59;130491;1266;108055;-72
2022/05/10 07:23:23;;;;;;;5.60;3.00;;;;;;;14.95;46.71;101084.27;130358;1267;107964;-72
2022/05/10 07:26:29;;;;;;;5.00;3.10;;;;;;;15.06;46.46;101086.94;130376;1267;108661;-72
2022/05/10 07:29:34;;;;;;;5.30;2.80;;;;;;;15.12;45.97;101076.60;130334;1267;109080;-72
2022/05/10 07:32:40;;;;;;;4.20;2.60;;;;;;;15.18;46.10;101079.38;130313;1267;108951;-73
2022/05/10 07:39:12;;;;;;;4.50;2.90;;;;;;;15.35;45.75;101074.86;130290;1267;108768;-72
2022/05/10 07:42:18;;;;;;;10.20;2.60;;;;;;;15.44;45.41;101073.08;130413;1267;108781;-72
2022/05/10 07:45:24;;;;;;;5.80;2.50;;;;;;;15.51;45.59;101071.56;130357;1267;108893;-72
2022/05/10 07:48:32;;;;;;;6.70;2.40;;;;;;;15.60;45.27;101068.57;130572;1267;108863;-73
2022/05/10 07:51:38;;;;;;;4.50;2.10;;;;;;;15.66;44.39;101071.31;130412;1267;108019;-73
2022/05/10 07:54:44;;;;;;;2.90;1.90;;;;;;;15.68;44.15;101070.05;130408;1268;108805;-73
2022/05/10 07:57:49;;;;;;;4.60;2.20;;;;;;;15.74;43.89;101073.23;130434;1268;108814;-73
2022/05/10 08:00:55;;;;;;;3.10;2.00;;;;;;;15.78;43.81;101070.29;130438;1266;108852;-73
2022/05/10 08:04:00;;;;;;;4.10;2.00;;;;;;;15.84;44.13;101065.65;130392;1268;108675;-73
2022/05/10 08:07:06;;;;;;;2.70;1.90;;;;;;;15.97;43.45;101066.73;130439;1267;108912;-73
2022/05/10 08:10:12;;;;;;;3.20;1.80;;;;;;;16.07;43.08;101068.51;130371;1268;108812;-73
2022/05/10 08:13:20;;;;;;;4.20;1.90;;;;;;;16.14;42.84;101062.06;130406;1268;108997;-72
2022/05/10 08:16:31;;;;;;;3.80;1.40;;;;;;;16.14;40.90;101061.70;130452;1267;108133;-73
2022/05/10 08:19:36;;;;;;;3.90;1.80;;;;;;;16.19;42.83;101063.48;130417;1268;107819;-73
2022/05/10 08:22:42;;;;;;;4.00;1.80;;;;;;;16.24;42.21;101057.02;130277;1268;108690;-73
2022/05/10 08:25:48;;;;;;;3.70;2.00;;;;;;;16.30;42.38;101058.59;130330;1268;108850;-73
2022/05/10 08:28:53;;;;;;;2.30;1.50;;;;;;;16.40;42.10;101051.80;130310;1267;108793;-73
2022/05/10 08:31:59;;;;;;;3.90;1.70;;;;;;;16.46;41.77;101044.11;130415;1268;108731;-73
2022/05/10 08:35:06;;;;;;;3.20;1.50;;;;;;;16.52;41.43;101049.02;130475;1268;108632;-73
2022/05/10 08:38:12;;;;;;;3.00;1.40;;;;;;;16.57;41.34;101043.84;130499;1267;108667;-73
2022/05/10 08:41:25;;;;;;;3.10;1.60;;;;;;;16.60;41.00;101042.05;130485;1268;108951;-73
2022/05/10 08:44:36;;;;;;;3.80;1.60;;;;;;;16.66;41.15;101035.36;130316;1267;108954;-73
2022/05/10 08:47:46;;;;;;;2.50;1.30;;;;;;;16.70;40.80;101028.84;130457;1268;108932;-72
2022/05/10 08:50:52;;;;;;;4.10;1.50;;;;;;;16.75;40.94;101030.95;130381;1268;108780;-72
2022/05/10 08:53:57;;;;;;;4.30;1.50;;;;;;;16.84;41.08;101026.48;130349;1268;107608;-72
2022/05/10 08:57:10;;;;;;;2.20;1.30;;;;;;;16.92;40.75;101027.80;130386;1266;108799;-72
2022/05/10 09:00:25;;;;;;;2.40;1.50;;;;;;;16.97;40.16;101022.63;130412;1267;107765;-73
2022/05/10 09:03:40;;;;;;;2.10;1.20;;;;;;;17.01;39.98;101019.74;130354;1268;108715;-72
2022/05/10 09:06:53;;;;;;;2.90;1.70;;;;;;;17.05;40.20;101010.65;130412;1267;108604;-73
2022/05/10 09:10:05;;;;;;;4.00;1.40;;;;;;;17.10;39.41;101009.91;130479;1268;108633;-72
2022/05/10 09:13:13;;;;;;;4.20;1.90;;;;;;;17.05;38.91;101005.05;130572;1267;108820;-72
2022/05/10 09:16:19;;;;;;;2.90;1.60;;;;;;;17.08;39.15;101003.52;130435;1268;108666;-73
2022/05/10 09:19:31;;;;;;;3.30;1.50;;;;;;;17.14;38.92;100998.88;130393;1268;108781;-72
2022/05/10 09:22:49;;;;;;;2.70;1.50;;;;;;;17.20;39.10;100999.50;130442;1268;108806;-72
2022/05/10 09:25:57;;;;;;;3.50;1.40;;;;;;;17.31;39.17;101003.52;130252;1268;108874;-72
2022/05/10 09:29:11;;;;;;;2.80;1.40;;;;;;;17.38;38.91;101005.39;130257;1266;108753;-72
2022/05/10 09:35:53;;;;;;;2.90;1.40;;;;;;;17.39;37.93;100998.27;130478;1267;108135;-74
2022/05/10 09:38:59;;;;;;;;;;;;;;;17.39;37.77;100992.00;130513;1268;108895;-72
2022/05/10 09:42:05;;;;;;;3.00;1.40;;;;;;;17.40;37.93;100984.50;130511;1268;109151;-74
2022/05/10 09:45:17;;;;;;;3.90;1.70;;;;;;;17.46;37.67;100978.42;130490;1268;108778;-74
2022/05/10 09:48:27;;;;;;;3.20;1.70;;;;;;;17.51;38.11;100973.73;130442;1268;108945;-71
2022/05/10 09:51:39;;;;;;;2.50;1.30;;;;;;;17.56;37.59;100974.02;130538;1268;109263;-72
2022/05/10 09:54:44;;;;;;;;;;;;;;;17.61;37.82;100971.04;130479;1268;108838;-72
2022/05/10 09:57:50;;;;;;;2.80;1.40;;;;;;;17.68;37.87;100972.16;130448;1268;108848;-73
2022/05/10 10:00:57;;;;;;;3.40;1.40;;;;;;;17.75;37.50;100968.86;130349;1267;107921;-73
2022/05/10 10:04:17;;;;;;;3.60;1.60;;;;;;;17.75;37.21;100970.48;130435;1267;108956;-74
2022/05/10 10:07:25;;;;;;;3.30;1.40;;;;;;;17.73;37.17;100965.64;130382;1267;108811;-74
2022/05/10 10:10:34;;;;;;;3.50;1.50;;;;;;;17.75;36.99;100966.70;130334;1267;108778;-73
2022/05/10 10:13:43;;;;;;;1.60;1.20;;;;;;;17.80;37.06;100959.14;130391;1267;108829;-74
2022/05/10 10:16:51;;;;;;;2.70;1.40;;;;;;;17.89;36.99;100948.35;130508;1266;108900;-74
2022/05/10 10:20:02;;;;;;;2.30;1.40;;;;;;;17.95;36.53;100944.14;130413;1267;108689;-74
2022/05/10 10:23:20;;;;;;;3.60;1.40;;;;;;;18.01;36.38;100944.64;130337;1267;108736;-74
2022/05/10 10:26:32;;;;;;;3.10;1.60;;;;;;;18.03;35.73;100938.52;130389;1266;108722;-73
2022/05/10 10:29:46;;;;;;;2.60;1.30;;;;;;;18.02;36.03;100937.14;130420;1267;108901;-74
2022/05/10 10:32:57;;;;;;;2.00;1.30;;;;;;;18.04;35.63;100929.02;130359;1267;108511;-75
2022/05/10 10:36:09;;;;;;;1.90;1.40;;;;;;;18.03;35.52;100921.02;130331;1267;108674;-74
2022/05/10 10:39:23;;;;;;;2.90;1.40;;;;;;;18.02;35.70;100911.84;130305;1267;108754;-74
2022/05/10 10:42:34;;;;;;;1.90;1.30;;;;;;;18.06;35.71;100911.39;130325;1267;108776;-74
2022/05/10 10:45:45;;;;;;;2.80;1.50;;;;;;;18.14;35.78;100904.67;130285;1267;108929;-74
2022/05/10 10:48:59;;;;;;;2.90;1.20;;;;;;;18.17;35.06;100903.52;130306;1267;108721;-74
2022/05/10 10:52:06;;;;;;;2.90;1.30;;;;;;;18.21;34.83;100900.53;130300;1267;108656;-74
2022/05/10 10:55:12;;;;;;;1.80;1.20;;;;;;;18.30;34.86;100899.61;130326;1267;108698;-74
2022/05/10 10:58:29;;;;;;;2.20;1.10;;;;;;;18.38;34.31;100894.34;130313;1267;108684;-74
2022/05/10 11:01:57;;;;;;;2.70;1.20;;;;;;;18.42;33.43;100883.60;130218;1267;108717;-73
2022/05/10 11:05:18;;;;;;;1.70;1.20;;;;;;;18.38;33.89;100874.30;130367;1267;108819;-73
2022/05/10 11:08:35;;;;;;;2.30;1.30;;;;;;;18.46;33.55;100871.95;130340;1267;108687;-73
2022/05/10 11:11:53;;;;;;;2.60;1.40;;;;;;;18.53;33.84;100867.77;130369;1267;107555;-73
2022/05/10 11:15:11;;;;;;;3.20;1.30;;;;;;;18.59;33.51;100863.25;130288;1267;107432;-73
2022/05/10 11:18:30;;;;;;;1.50;1.20;;;;;;;18.61;33.30;100857.77;130340;1267;109040;-73
2022/05/10 11:21:46;;;;;;;2.00;1.40;;;;;;;18.61;33.11;100851.66;130366;1267;108659;-74
2022/05/10 11:25:09;;;;;;;3.70;1.50;;;;;;;18.62;32.65;100847.73;130292;1267;108761;-73
2022/05/10 11:28:39;;;;;;;4.30;1.10;;;;;;;18.66;32.28;100843.70;130322;1267;108733;-73
2022/05/10 11:31:57;;;;;;;1.70;1.30;;;;;;;18.67;32.28;100838.17;130327;1267;108739;-73
2022/05/10 11:35:22;;;;;;;1.90;1.10;;;;;;;18.70;32.37;100825.55;130295;1267;108645;-74
2022/05/10 11:38:59;;;;;;;1.80;1.40;;;;;;;18.71;32.03;100817.98;130290;1267;108777;-73
2022/05/10 11:42:21;;;;;;;2.10;1.00;;;;;;;18.73;32.11;100819.70;130342;1267;108810;-74
2022/05/10 11:46:29;;;;;;;1.90;1.20;;;;;;;18.78;32.62;100808.27;130368;1267;108507;-73
2022/05/10 11:50:26;;;;;;;1.60;1.20;;;;;;;18.82;32.42;100798.73;129271;1271;109018;-74
2022/05/10 11:53:52;;;;;;;2.40;1.10;;;;;;;18.92;32.61;100797.35;130141;1267;108794;-74
2022/05/10 11:56:59;;;;;;;2.90;1.20;;;;;;;18.98;32.39;100784.64;130556;1266;108801;-73
2022/05/10 12:00:40;;;;;;;2.70;1.10;;;;;;;19.01;32.35;100783.95;130481;1267;108926;-74
2022/05/10 12:03:56;;;;;;;3.30;1.30;;;;;;;19.05;32.27;100783.27;130317;1266;108725;-73
2022/05/10 12:07:33;;;;;;;5.00;1.30;;;;;;;19.10;32.36;100784.84;130378;1266;108354;-73
2022/05/10 12:10:42;;;;;;;3.80;1.20;;;;;;;19.17;32.28;100780.86;130323;1266;108671;-73
2022/05/10 12:24:27;;;;;;;2.60;1.20;;;;;;;19.20;31.65;100752.75;130323;1267;108652;-73
2022/05/10 12:27:37;;;;;;;1.90;1.10;;;;;;;19.28;31.38;100749.68;130296;1267;108833;-73
2022/05/10 12:30:42;;;;;;;1.80;1.10;;;;;;;19.30;30.83;100751.56;130323;1267;108731;-73
2022/05/10 12:33:58;;;;;;;2.00;1.00;;;;;;;19.28;30.90;100752.06;130251;1267;108749;-73
2022/05/10 12:37:36;;;;;;;3.20;1.10;;;;;;;19.25;30.96;100746.80;130327;1267;108694;-73
2022/05/10 12:40:57;;;;;;;2.40;1.20;;;;;;;19.26;31.10;100744.89;130323;1267;107557;-73
2022/05/10 12:44:29;;;;;;;1.80;1.20;;;;;;;19.31;30.93;100739.75;130346;1267;108813;-73
2022/05/10 12:47:55;;;;;;;2.60;1.10;;;;;;;19.33;30.58;100731.20;130330;1267;108820;-73
2022/05/10 12:51:11;;;;;;;3.10;1.10;;;;;;;19.35;30.57;100729.48;130301;1267;108669;-73
2022/05/10 12:54:20;;;;;;;1.70;1.10;;;;;;;19.40;30.78;100725.53;130309;1267;108628;-74
2022/05/10 12:57:38;;;;;;;2.00;1.20;;;;;;;19.44;30.73;100721.19;130388;1267;108818;-73
2022/05/10 13:00:48;;;;;;;2.60;1.30;;;;;;;19.46;30.57;100719.89;130200;1268;108952;-73
2022/05/10 13:03:59;;;;;;;1.40;0.80;;;;;;;19.45;29.48;100706.48;130153;1268;108545;-73
2022/05/10 13:07:13;;;;;;;3.30;1.10;;;;;;;19.42;30.15;100699.69;130153;1268;108624;-72
2022/05/10 13:10:21;;;;;;;1.50;1.00;;;;;;;19.46;30.54;100692.46;130182;1268;108682;-75
2022/05/10 13:13:32;;;;;;;2.20;1.10;;;;;;;19.52;30.22;100694.16;130266;1268;108621;-72
2022/05/10 13:16:44;;;;;;;2.40;1.20;;;;;;;19.54;30.08;100687.38;130246;1268;108008;-72
2022/05/10 13:19:50;;;;;;;2.80;1.30;;;;;;;19.54;30.00;100675.96;130271;1268;108865;-75
2022/05/10 13:22:59;;;;;;;4.30;1.20;;;;;;;19.53;30.37;100671.85;130246;1268;108674;-73
2022/05/10 13:26:09;;;;;;;1.30;1.00;;;;;;;19.58;30.37;100664.48;130203;1268;108796;-74
2022/05/10 13:29:14;;;;;;;2.30;1.20;;;;;;;19.63;30.46;100664.80;130196;1268;108693;-74
2022/05/10 13:32:34;;;;;;;2.80;1.20;;;;;;;19.65;30.21;100660.90;130239;1268;108991;-74
2022/05/10 13:35:41;;;;;;;1.60;1.20;;;;;;;19.73;30.55;100662.27;130274;1268;107825;-74
2022/05/10 13:38:50;;;;;;;1.70;1.10;;;;;;;19.78;30.49;100651.67;130240;1268;108969;-74
2022/05/10 13:41:59;;;;;;;3.20;1.20;;;;;;;19.77;30.25;100641.00;130221;1268;108718;-74
2022/05/10 13:45:05;;;;;;;3.00;1.10;;;;;;;19.78;30.12;100633.64;130244;1268;108823;-74
2022/05/10 13:48:15;;;;;;;4.00;1.50;;;;;;;19.77;30.12;100632.30;130269;1268;108705;-72
2022/05/10 13:51:23;;;;;;;2.20;1.20;;;;;;;19.75;29.97;100631.50;130268;1268;108656;-75
2022/05/10 13:54:32;;;;;;;3.20;1.30;;;;;;;19.75;29.97;100627.71;130233;1268;109640;-74
2022/05/10 13:57:38;;;;;;;3.80;1.40;;;;;;;19.79;30.14;100618.98;130261;1268;108747;-72
2022/05/10 14:00:45;;;;;;;2.90;1.20;;;;;;;19.82;29.88;100616.65;130228;1268;109557;-72
2022/05/10 14:03:52;;;;;;;1.90;1.10;;;;;;;19.80;29.91;100609.35;130232;1268;108734;-75
2022/05/10 14:07:04;;;;;;;3.00;1.20;;;;;;;19.80;29.83;100604.31;130198;1268;108650;-73
2022/05/10 14:10:13;;;;;;;2.40;1.20;;;;;;;19.83;30.19;100606.02;130233;1268;108770;-73
2022/05/10 14:13:23;;;;;;;3.70;1.20;;;;;;;19.88;30.17;100600.88;130260;1268;108626;-73
2022/05/10 14:16:35;;;;;;;3.60;1.20;;;;;;;19.91;29.85;100596.86;130269;1268;108739;-74
2022/05/10 14:19:45;;;;;;;4.20;1.20;;;;;;;19.94;30.05;100593.42;130248;1268;108840;-74
2022/05/10 14:22:53;;;;;;;3.80;1.30;;;;;;;19.97;29.99;100586.22;130244;1268;108862;-73
2022/05/10 14:26:01;;;;;;;4.20;1.10;;;;;;;20.02;30.19;100577.02;130266;1268;109083;-74
2022/05/10 14:29:17;;;;;;;1.30;1.20;;;;;;;20.06;30.22;100574.52;130231;1268;108810;-73
2022/05/10 14:32:36;;;;;;;2.50;1.10;;;;;;;20.08;29.91;100564.84;130241;1268;108812;-73
2022/05/10 14:35:50;;;;;;;2.30;1.10;;;;;;;20.04;29.96;100562.59;130304;1268;108695;-73
2022/05/10 14:38:56;;;;;;;2.80;1.10;;;;;;;20.03;29.97;100555.13;130261;1268;108877;-73
2022/05/10 14:42:02;;;;;;;4.00;1.30;;;;;;;20.05;30.02;100550.39;130521;1267;108651;-74
2022/05/10 14:45:17;;;;;;;3.90;1.20;;;;;;;20.07;29.95;100547.84;130437;1265;108684;-76
2022/05/10 14:48:31;;;;;;;2.90;1.20;;;;;;;20.04;29.82;100546.17;130423;1267;109753;-76
2022/05/10 14:51:40;;;;;;;2.10;1.30;;;;;;;20.02;29.79;100539.21;130419;1267;108963;-75
2022/05/10 14:54:46;;;;;;;2.20;1.30;;;;;;;20.03;30.21;100535.17;130329;1267;108679;-76